createdAt,value
2023-04-23T00:00:14.449Z,4.72
2023-04-23T00:02:47.092Z,4.88
2023-04-23T00:05:16.606Z,4.70
2023-04-23T00:07:45.902Z,4.67
2023-04-23T00:10:14.977Z,4.80
2023-04-23T00:12:45.919Z,5.05
2023-04-23T00:15:15.914Z,5.30
2023-04-23T00:17:44.626Z,5.37
2023-04-23T00:20:13.896Z,5.87
2023-04-23T00:22:42.482Z,5.55
2023-04-23T00:25:11.779Z,5.50
2023-04-23T00:27:40.408Z,5.60
2023-04-23T00:30:11.283Z,5.10
2023-04-23T00:32:40.110Z,4.72
2023-04-23T00:35:09.753Z,4.70
2023-04-23T00:37:38.344Z,5.00
2023-04-23T00:40:08.646Z,5.10
2023-04-23T00:42:38.756Z,5.73
2023-04-23T00:45:10.565Z,5.47
2023-04-23T00:47:39.195Z,5.33
2023-04-23T00:50:09.829Z,5.30
2023-04-23T00:52:40.795Z,5.63
2023-04-23T00:55:10.394Z,5.80
2023-04-23T00:57:39.890Z,6.20
2023-04-23T01:00:14.082Z,6.30
2023-04-23T01:02:44.819Z,6.70
2023-04-23T01:05:15.477Z,6.33
2023-04-23T01:07:45.624Z,6.30
2023-04-23T01:10:14.595Z,6.00
2023-04-23T01:12:44.272Z,6.40
2023-04-23T01:15:14.320Z,6.33
2023-04-23T01:17:43.313Z,6.30
2023-04-23T01:20:12.780Z,5.93
2023-04-23T01:22:42.898Z,6.13
2023-04-23T01:25:11.896Z,6.50
2023-04-23T01:27:41.097Z,6.00
2023-04-23T01:30:11.058Z,6.13
2023-04-23T01:32:41.306Z,5.80
2023-04-23T01:35:13.323Z,6.30
2023-04-23T01:37:46.075Z,6.23
2023-04-23T01:40:15.172Z,6.50
2023-04-23T01:42:43.912Z,7.03
2023-04-23T01:45:12.797Z,6.73
2023-04-23T01:47:42.585Z,6.43
2023-04-23T01:50:11.739Z,7.37
2023-04-23T01:52:40.500Z,6.53
2023-04-23T01:55:10.816Z,6.53
2023-04-23T01:57:39.481Z,6.63
2023-04-23T02:00:11.810Z,6.13
2023-04-23T02:02:45.626Z,6.87
2023-04-23T02:05:16.826Z,7.20
2023-04-23T02:07:46.533Z,7.13
2023-04-23T02:10:18.742Z,7.03
2023-04-23T02:12:47.991Z,6.87
2023-04-23T02:15:17.316Z,6.27
2023-04-23T02:17:46.169Z,7.17
2023-04-23T02:20:15.080Z,7.53
2023-04-23T02:22:44.294Z,6.97
2023-04-23T02:25:15.762Z,7.17
2023-04-23T02:27:45.997Z,6.27
2023-04-23T02:30:15.474Z,6.17
2023-04-23T02:32:44.248Z,6.87
2023-04-23T02:35:13.465Z,6.00
2023-04-23T02:37:42.613Z,6.37
2023-04-23T02:40:12.264Z,6.50
2023-04-23T02:42:43.830Z,6.80
2023-04-23T02:45:14.925Z,6.57
2023-04-23T02:47:43.703Z,6.60
2023-04-23T02:50:12.750Z,6.30
2023-04-23T02:52:41.521Z,6.07
2023-04-23T02:55:11.038Z,6.17
2023-04-23T02:57:39.846Z,6.27
2023-04-23T03:00:09.842Z,6.50
2023-04-23T03:02:44.485Z,5.97
2023-04-23T03:05:13.559Z,5.60
2023-04-23T03:07:43.419Z,5.37
2023-04-23T03:10:12.692Z,5.37
2023-04-23T03:12:41.388Z,5.00
2023-04-23T03:15:11.765Z,4.87
2023-04-23T03:17:40.979Z,5.00
2023-04-23T03:20:12.795Z,4.93
2023-04-23T03:22:42.363Z,4.60
2023-04-23T03:25:11.627Z,4.90
2023-04-23T03:27:41.035Z,4.53
2023-04-23T03:30:11.091Z,4.67
2023-04-23T03:32:40.327Z,4.47
2023-04-23T03:35:10.485Z,4.73
2023-04-23T03:37:44.093Z,4.40
2023-04-23T03:40:13.616Z,4.20
2023-04-23T03:42:43.404Z,4.30
2023-04-23T03:45:16.832Z,4.20
2023-04-23T03:47:46.479Z,4.57
2023-04-23T03:50:17.597Z,4.73
2023-04-23T03:52:51.244Z,4.40
2023-04-23T03:55:39.890Z,4.70
2023-04-23T03:58:09.526Z,4.50
2023-04-23T04:00:45.047Z,4.60
2023-04-23T04:03:13.683Z,4.60
2023-04-23T04:05:42.396Z,4.83
2023-04-23T04:08:12.628Z,4.77
2023-04-23T04:10:42.086Z,5.30
2023-04-23T04:13:11.159Z,4.70
2023-04-23T04:15:39.719Z,5.10
2023-04-23T04:18:08.413Z,5.33
2023-04-23T04:20:37.012Z,5.43
2023-04-23T04:23:05.689Z,5.70
2023-04-23T04:25:40.046Z,5.27
2023-04-23T04:28:09.567Z,5.33
2023-04-23T04:30:38.414Z,5.60
2023-04-23T04:33:07.150Z,5.67
2023-04-23T04:35:35.758Z,5.63
2023-04-23T04:38:04.425Z,5.43
2023-04-23T04:40:33.911Z,5.40
2023-04-23T04:43:05.400Z,5.47
2023-04-23T04:45:34.217Z,5.70
2023-04-23T04:48:02.964Z,5.30
2023-04-23T04:50:31.867Z,5.47
2023-04-23T04:53:00.626Z,5.30
2023-04-23T04:55:30.127Z,5.47
2023-04-23T04:57:58.759Z,5.10
2023-04-23T05:00:30.709Z,5.00
2023-04-23T05:03:00.077Z,4.90
2023-04-23T05:05:29.652Z,4.67
2023-04-23T05:08:02.198Z,4.77
2023-04-23T05:10:31.461Z,4.40
2023-04-23T05:13:00.876Z,4.57
2023-04-23T05:15:31.473Z,4.37
2023-04-23T05:18:00.213Z,3.97
2023-04-23T05:20:28.874Z,4.63
2023-04-23T05:22:59.575Z,4.67
2023-04-23T05:25:28.425Z,4.60
2023-04-23T05:27:57.260Z,5.00
2023-04-23T05:30:26.031Z,5.30
2023-04-23T05:32:56.157Z,4.70
2023-04-23T05:35:24.976Z,4.70
2023-04-23T05:37:53.648Z,4.75
2023-04-23T05:40:22.500Z,4.60
2023-04-23T05:42:51.133Z,4.75
2023-04-23T05:45:19.832Z,4.60
2023-04-23T05:47:48.535Z,4.30
2023-04-23T05:50:18.930Z,4.72
2023-04-23T05:52:47.714Z,4.80
2023-04-23T05:55:16.926Z,4.50
2023-04-23T05:57:46.394Z,4.60
2023-04-23T06:00:15.595Z,3.90
2023-04-23T06:02:44.482Z,4.38
2023-04-23T06:05:13.493Z,4.10
2023-04-23T06:07:43.768Z,4.22
2023-04-23T06:10:13.389Z,4.30
2023-04-23T06:12:42.503Z,3.97
2023-04-23T06:15:12.104Z,3.80
2023-04-23T06:17:41.280Z,3.65
2023-04-23T06:20:12.069Z,3.95
2023-04-23T06:22:41.421Z,4.22
2023-04-23T06:25:12.074Z,3.58
2023-04-23T06:27:40.969Z,3.63
2023-04-23T06:30:17.212Z,3.43
2023-04-23T06:32:46.677Z,3.53
2023-04-23T06:35:15.513Z,3.03
2023-04-23T06:37:44.196Z,3.17
2023-04-23T06:40:14.528Z,3.15
2023-04-23T06:42:43.267Z,3.17
2023-04-23T06:45:18.663Z,3.38
2023-04-23T06:47:49.352Z,3.53
2023-04-23T06:50:18.262Z,3.60
2023-04-23T06:52:47.070Z,3.58
2023-04-23T06:55:17.206Z,3.70
2023-04-23T06:57:45.958Z,3.75
2023-04-23T07:00:15.181Z,3.50
2023-04-23T07:02:45.039Z,3.70
2023-04-23T07:05:14.020Z,3.50
2023-04-23T07:07:43.555Z,3.40
2023-04-23T07:10:14.456Z,3.80
2023-04-23T07:12:46.712Z,3.30
2023-04-23T07:15:15.573Z,3.50
2023-04-23T07:17:44.285Z,3.17
2023-04-23T07:20:13.110Z,3.50
2023-04-23T07:22:41.809Z,3.42
2023-04-23T07:25:10.992Z,3.47
2023-04-23T07:27:39.668Z,3.20
2023-04-23T07:30:10.850Z,3.30
2023-04-23T07:32:39.538Z,3.47
2023-04-23T07:35:10.517Z,3.50
2023-04-23T07:37:39.194Z,3.30
2023-04-23T07:40:09.259Z,2.83
2023-04-23T07:42:37.757Z,2.88
2023-04-23T07:45:07.599Z,3.10
2023-04-23T07:47:37.705Z,3.00
2023-04-23T07:50:07.418Z,3.22
2023-04-23T07:52:36.174Z,3.03
2023-04-23T07:55:05.151Z,3.20
2023-04-23T07:57:33.938Z,3.10
2023-04-23T08:00:02.687Z,2.92
2023-04-23T08:02:42.125Z,2.65
2023-04-23T08:05:11.607Z,2.80
2023-04-23T08:07:40.636Z,2.90
2023-04-23T08:10:10.291Z,3.00
2023-04-23T08:12:39.002Z,3.15
2023-04-23T08:15:08.445Z,3.00
2023-04-23T08:17:43.038Z,2.95
2023-04-23T08:20:12.628Z,3.65
2023-04-23T08:22:41.400Z,4.07
2023-04-23T08:25:10.999Z,4.60
2023-04-23T08:27:39.794Z,3.67
2023-04-23T08:30:09.685Z,3.55
2023-04-23T08:32:40.574Z,3.10
2023-04-23T08:35:11.287Z,3.35
2023-04-23T08:37:40.412Z,3.20
2023-04-23T08:40:10.312Z,2.78
2023-04-23T08:42:44.057Z,2.70
2023-04-23T08:45:13.625Z,2.80
2023-04-23T08:47:44.523Z,2.50
2023-04-23T08:50:16.712Z,2.60
2023-04-23T08:52:51.617Z,2.42
2023-04-23T08:55:21.833Z,2.35
2023-04-23T08:57:51.623Z,2.25
2023-04-23T09:00:23.319Z,2.20
2023-04-23T09:02:52.277Z,2.45
2023-04-23T09:05:22.578Z,2.22
2023-04-23T09:07:51.164Z,2.33
2023-04-23T09:10:19.890Z,2.25
2023-04-23T09:12:48.602Z,3.90
2023-04-23T09:15:18.269Z,2.22
2023-04-23T09:17:48.326Z,2.00
2023-04-23T09:20:17.780Z,2.08
2023-04-23T09:22:49.585Z,1.85
2023-04-23T09:25:20.445Z,1.98
2023-04-23T09:27:49.636Z,1.88
2023-04-23T09:30:19.055Z,2.03
2023-04-23T09:32:49.669Z,1.70
2023-04-23T09:35:21.076Z,1.50
2023-04-23T09:37:53.499Z,1.52
2023-04-23T09:40:26.404Z,1.60
2023-04-23T09:42:55.148Z,1.50
2023-04-23T09:45:25.892Z,1.40
2023-04-23T09:47:56.478Z,1.27
2023-04-23T09:50:34.566Z,1.50
2023-04-23T09:53:05.062Z,1.13
2023-04-23T09:55:39.136Z,1.40
2023-04-23T09:58:12.888Z,1.10
2023-04-23T10:00:42.315Z,1.20
2023-04-23T10:03:12.443Z,1.20
2023-04-23T10:05:59.794Z,1.48
2023-04-23T10:08:33.185Z,1.70
2023-04-23T10:11:14.144Z,1.40
2023-04-23T10:13:49.521Z,1.30
2023-04-23T10:16:23.041Z,1.60
2023-04-23T10:18:55.639Z,1.45
2023-04-23T10:21:33.938Z,1.63
2023-04-23T10:24:12.305Z,1.52
2023-04-23T10:26:43.914Z,1.40
2023-04-23T10:29:18.518Z,1.30
2023-04-23T10:31:48.603Z,1.35
2023-04-23T10:34:17.525Z,1.30
2023-04-23T10:36:46.320Z,1.30
2023-04-23T10:39:24.034Z,1.30
2023-04-23T10:41:59.115Z,1.27
2023-04-23T10:44:57.367Z,1.30
2023-04-23T10:47:23.012Z,1.50
2023-04-23T10:49:51.861Z,1.30
2023-04-23T10:52:24.390Z,1.38
2023-04-23T10:55:01.021Z,1.40
2023-04-23T10:57:29.686Z,1.50
2023-04-23T10:59:59.091Z,1.38
2023-04-23T11:02:28.269Z,1.30
2023-04-23T11:04:58.356Z,1.30
2023-04-23T11:07:31.312Z,1.40
2023-04-23T11:10:12.155Z,1.50
2023-04-23T11:12:41.690Z,1.50
2023-04-23T11:15:14.760Z,1.48
2023-04-23T11:18:05.616Z,1.58
2023-04-23T11:20:34.509Z,1.80
2023-04-23T11:23:03.228Z,1.70
2023-04-23T11:25:33.467Z,1.60
2023-04-23T11:28:01.932Z,1.70
2023-04-23T11:30:32.169Z,1.90
2023-04-23T11:33:02.318Z,1.60
2023-04-23T11:35:39.715Z,1.60
2023-04-23T11:38:10.333Z,1.63
2023-04-23T11:40:42.913Z,1.60
2023-04-23T11:43:11.516Z,1.48
2023-04-23T11:45:40.037Z,1.25
2023-04-23T11:48:08.702Z,1.40
2023-04-23T11:50:39.118Z,1.40
2023-04-23T11:53:09.014Z,1.20
2023-04-23T11:55:43.940Z,1.23
2023-04-23T11:58:12.655Z,1.30
2023-04-23T12:00:42.446Z,1.30
2023-04-23T12:03:11.852Z,1.48
2023-04-23T12:05:43.671Z,1.30
2023-04-23T12:08:13.437Z,1.33
2023-04-23T12:10:47.759Z,1.30
2023-04-23T12:13:17.413Z,1.85
2023-04-23T12:15:50.545Z,1.23
2023-04-23T12:18:19.917Z,1.60
2023-04-23T12:20:48.652Z,1.30
2023-04-23T12:23:17.389Z,1.20
2023-04-23T12:25:47.523Z,1.30
2023-04-23T12:28:16.194Z,1.50
2023-04-23T12:30:45.879Z,1.40
2023-04-23T12:33:15.138Z,1.20
2023-04-23T12:35:45.320Z,1.50
2023-04-23T12:38:24.717Z,1.60
2023-04-23T12:40:55.873Z,1.30
2023-04-23T12:43:24.887Z,1.50
2023-04-23T12:45:54.210Z,1.55
2023-04-23T12:48:22.762Z,1.55
2023-04-23T12:50:51.504Z,1.60
2023-04-23T12:53:20.758Z,1.40
2023-04-23T12:55:50.315Z,1.38
2023-04-23T12:58:45.510Z,1.30
2023-04-23T13:01:18.647Z,1.23
2023-04-23T13:03:47.317Z,1.50
2023-04-23T13:06:15.868Z,1.27
2023-04-23T13:08:44.499Z,1.30
2023-04-23T13:11:13.526Z,1.30
2023-04-23T13:13:42.220Z,1.40
2023-04-23T13:16:12.997Z,1.35
2023-04-23T13:18:41.583Z,1.33
2023-04-23T13:21:11.538Z,1.20
2023-04-23T13:23:40.178Z,1.30
2023-04-23T13:26:08.939Z,1.40
2023-04-23T13:28:38.034Z,1.27
2023-04-23T13:31:07.491Z,1.25
2023-04-23T13:33:43.595Z,1.20
2023-04-23T13:36:12.257Z,1.20
2023-04-23T13:38:40.922Z,1.25
2023-04-23T13:41:09.535Z,1.20
2023-04-23T13:43:38.478Z,1.10
2023-04-23T13:46:07.935Z,1.10
2023-04-23T13:48:36.628Z,1.08
2023-04-23T13:51:16.945Z,1.02
2023-04-23T13:53:56.550Z,1.27
2023-04-23T13:56:25.547Z,1.10
2023-04-23T13:59:02.297Z,1.20
2023-04-23T14:01:42.075Z,1.30
2023-04-23T14:04:16.725Z,1.42
2023-04-23T14:06:47.558Z,1.20
2023-04-23T14:09:19.368Z,1.25
2023-04-23T14:11:51.340Z,1.17
2023-04-23T14:14:20.314Z,1.10
2023-04-23T14:16:48.933Z,1.10
2023-04-23T14:19:18.387Z,1.00
2023-04-23T14:21:48.938Z,1.02
2023-04-23T14:24:23.617Z,1.10
2023-04-23T14:26:52.325Z,1.20
2023-04-23T14:29:26.568Z,1.60
2023-04-23T14:31:55.443Z,1.10
2023-04-23T14:34:25.998Z,1.10
2023-04-23T14:36:56.255Z,1.00
2023-04-23T14:39:25.918Z,1.10
2023-04-23T14:41:54.627Z,1.10
2023-04-23T14:44:26.608Z,1.00
2023-04-23T14:46:55.665Z,1.10
2023-04-23T14:49:25.223Z,1.30
2023-04-23T14:51:57.837Z,1.10
2023-04-23T14:54:26.715Z,1.10
2023-04-23T14:56:55.334Z,1.30
2023-04-23T14:59:25.329Z,1.10
2023-04-23T15:01:54.341Z,1.02
2023-04-23T15:04:23.350Z,1.00
2023-04-23T15:06:51.979Z,1.00
2023-04-23T15:09:22.167Z,1.20
2023-04-23T15:11:51.095Z,1.00
2023-04-23T15:14:31.597Z,1.10
2023-04-23T15:17:01.076Z,1.10
2023-04-23T15:19:31.223Z,1.10
2023-04-23T15:22:00.120Z,1.02
2023-04-23T15:24:30.354Z,0.93
2023-04-23T15:26:59.836Z,1.13
2023-04-23T15:29:28.608Z,1.10
2023-04-23T15:31:58.623Z,1.00
2023-04-23T15:34:28.037Z,1.00
2023-04-23T15:36:56.917Z,1.23
2023-04-23T15:39:26.403Z,1.10
2023-04-23T15:41:58.340Z,1.10
2023-04-23T15:44:27.300Z,1.10
2023-04-23T15:46:56.320Z,1.17
2023-04-23T15:49:24.967Z,1.23
2023-04-23T15:51:54.180Z,1.10
2023-04-23T15:54:23.469Z,1.00
2023-04-23T15:56:52.322Z,1.10
2023-04-23T15:59:23.791Z,1.00
2023-04-23T16:01:52.758Z,1.13
2023-04-23T16:04:50.965Z,1.13
2023-04-23T16:07:19.911Z,1.20
2023-04-23T16:09:49.092Z,1.13
2023-04-23T16:12:17.915Z,1.00
2023-04-23T16:14:48.127Z,1.10
2023-04-23T16:17:17.064Z,21.13
2023-04-23T16:19:46.578Z,2.05
2023-04-23T16:22:17.601Z,1.30
2023-04-23T16:24:46.451Z,1.23
2023-04-23T16:27:15.265Z,4.82
2023-04-23T16:29:52.529Z,1.67
2023-04-23T16:32:46.876Z,1.27
2023-04-23T16:35:15.643Z,1.10
2023-04-23T16:38:11.480Z,1.80
2023-04-23T16:41:05.240Z,1.50
2023-04-23T16:43:34.196Z,1.15
2023-04-23T16:46:04.346Z,1.35
2023-04-23T16:48:33.144Z,1.20
2023-04-23T16:51:01.923Z,1.17
2023-04-23T16:53:30.733Z,1.13
2023-04-23T16:56:00.127Z,1.10
2023-04-23T16:58:35.427Z,3.13
2023-04-23T17:01:05.577Z,1.00
2023-04-23T17:03:36.625Z,1.17
2023-04-23T17:06:12.222Z,1.10
2023-04-23T17:08:41.264Z,1.30
2023-04-23T17:11:14.101Z,1.30
2023-04-23T17:13:44.434Z,1.27
2023-04-23T17:17:04.472Z,1.27
2023-04-23T17:19:35.197Z,1.30
2023-04-23T17:22:03.836Z,1.60
2023-04-23T17:24:33.251Z,1.40
2023-04-23T17:27:08.320Z,1.40
2023-04-23T17:29:37.050Z,1.30
2023-04-23T17:32:06.064Z,1.20
2023-04-23T17:39:26.865Z,1.20
2023-04-23T17:42:02.188Z,1.40
2023-04-23T17:44:30.982Z,1.50
2023-04-23T17:46:59.796Z,1.48
2023-04-23T17:49:28.504Z,1.40
2023-04-23T17:51:57.672Z,1.55
2023-04-23T17:54:27.968Z,1.40
2023-04-23T17:56:56.706Z,1.50
2023-04-23T17:59:25.459Z,1.40
2023-04-23T18:01:54.484Z,1.70
2023-04-23T18:05:13.461Z,1.55
2023-04-23T18:07:47.761Z,1.50
2023-04-23T18:10:19.377Z,1.33
2023-04-23T18:12:50.524Z,1.80
2023-04-23T18:15:23.199Z,1.88
2023-04-23T18:17:54.665Z,1.73
2023-04-23T18:20:25.137Z,1.60
2023-04-23T18:22:54.921Z,2.08
2023-04-23T18:25:26.882Z,1.65
2023-04-23T18:27:55.487Z,2.15
2023-04-23T18:30:25.588Z,1.70
2023-04-23T18:33:03.895Z,1.98
2023-04-23T18:35:32.540Z,1.60
2023-04-23T18:38:06.960Z,1.90
2023-04-23T18:40:36.983Z,2.00
2023-04-23T18:43:05.538Z,2.10
2023-04-23T18:45:34.124Z,1.80
2023-04-23T18:48:11.467Z,1.90
2023-04-23T18:50:44.739Z,1.80
2023-04-23T18:53:13.307Z,1.85
2023-04-23T18:55:43.433Z,2.65
2023-04-23T18:58:11.946Z,2.40
2023-04-23T19:00:40.703Z,2.40
2023-04-23T19:03:23.557Z,2.53
2023-04-23T19:05:54.322Z,2.75
2023-04-23T19:08:50.227Z,2.40
2023-04-23T19:11:20.447Z,2.20
2023-04-23T19:13:49.066Z,1.92
2023-04-23T19:16:18.379Z,2.00
2023-04-23T19:19:16.434Z,2.03
2023-04-23T19:21:45.062Z,2.03
2023-04-23T19:24:13.745Z,2.20
2023-04-23T19:26:45.812Z,2.00
2023-04-23T19:29:14.556Z,2.37
2023-04-23T19:31:43.393Z,2.03
2023-04-23T19:34:38.548Z,2.23
2023-04-23T19:37:07.165Z,2.10
2023-04-23T19:39:35.819Z,1.97
2023-04-23T19:42:07.209Z,2.00
2023-04-23T19:44:35.956Z,2.40
2023-04-23T19:47:04.688Z,2.13
2023-04-23T19:49:33.344Z,2.47
2023-04-23T19:52:03.504Z,2.23
2023-04-23T19:58:40.780Z,2.40
2023-04-23T20:01:14.647Z,2.50
2023-04-23T20:03:47.793Z,2.50
2023-04-23T20:06:16.414Z,2.90
2023-04-23T20:09:04.759Z,2.60
2023-04-23T20:11:33.603Z,3.10
2023-04-23T20:14:04.091Z,2.70
2023-04-23T20:16:32.840Z,3.13
2023-04-23T20:19:01.945Z,2.93
2023-04-23T20:21:30.468Z,3.07
2023-04-23T20:23:59.276Z,3.37
2023-04-23T20:26:28.212Z,3.20
2023-04-23T20:28:57.536Z,3.30
2023-04-23T20:31:27.860Z,3.30
2023-04-23T20:33:57.108Z,3.00
2023-04-23T20:36:28.824Z,3.30
2023-04-23T20:38:58.212Z,3.23
2023-04-23T20:41:27.370Z,3.53
2023-04-23T20:43:57.135Z,3.53
2023-04-23T20:46:30.181Z,3.53
2023-04-23T20:49:00.936Z,3.60
2023-04-23T20:51:29.857Z,3.40
2023-04-23T20:53:58.662Z,3.30
2023-04-23T20:56:27.448Z,3.00
2023-04-23T20:58:57.482Z,3.40
2023-04-23T21:01:28.108Z,2.90
2023-04-23T21:03:56.899Z,2.87
2023-04-23T21:06:25.628Z,2.90
2023-04-23T21:08:54.131Z,2.97
2023-04-23T21:11:24.289Z,3.30
2023-04-23T21:13:53.024Z,3.20
2023-04-23T21:16:21.669Z,3.40
2023-04-23T21:18:51.856Z,3.20
2023-04-23T21:21:25.709Z,3.23
2023-04-23T21:23:54.346Z,3.20
2023-04-23T21:26:23.322Z,3.20
2023-04-23T21:28:51.932Z,3.50
2023-04-23T21:31:30.891Z,3.37
2023-04-23T21:34:00.981Z,2.90
2023-04-23T21:36:29.718Z,3.57
2023-04-23T21:38:58.204Z,3.60
2023-04-23T21:41:26.837Z,3.23
2023-04-23T21:43:55.560Z,3.70
2023-04-23T21:46:25.181Z,3.30
2023-04-23T21:48:54.100Z,3.33
2023-04-23T21:51:25.133Z,3.10
2023-04-23T21:53:53.734Z,3.70
2023-04-23T21:56:22.812Z,3.50
2023-04-23T21:58:51.421Z,3.40
2023-04-23T22:01:19.915Z,2.77
2023-04-23T22:03:48.616Z,3.20
2023-04-23T22:06:17.568Z,3.37
2023-04-23T22:08:47.987Z,3.10
2023-04-23T22:11:17.492Z,3.20
2023-04-23T22:13:46.326Z,3.30
2023-04-23T22:16:27.511Z,2.80
2023-04-23T22:18:57.954Z,3.17
2023-04-23T22:21:26.711Z,3.10
2023-04-23T22:23:57.249Z,2.93
2023-04-23T22:26:25.929Z,3.27
2023-04-23T22:28:54.670Z,3.20
2023-04-23T22:31:23.424Z,3.10
2023-04-23T22:33:52.212Z,3.17
2023-04-23T22:36:20.870Z,3.30
2023-04-23T22:38:49.444Z,3.30
2023-04-23T22:41:19.550Z,3.37
2023-04-23T22:43:48.210Z,3.20
2023-04-23T22:46:17.032Z,3.07
2023-04-23T22:48:47.356Z,3.10
2023-04-23T22:51:16.172Z,3.30
2023-04-23T22:53:44.730Z,3.27
2023-04-23T22:56:13.437Z,3.43
2023-04-23T22:58:43.630Z,3.50
2023-04-23T23:01:12.338Z,3.30
2023-04-23T23:03:40.992Z,2.97
2023-04-23T23:06:09.662Z,3.27
2023-04-23T23:08:38.236Z,3.40
2023-04-23T23:11:07.086Z,3.00
2023-04-23T23:13:35.748Z,3.03
2023-04-23T23:16:06.330Z,3.40
2023-04-23T23:18:34.906Z,3.03
2023-04-23T23:21:03.546Z,3.27
2023-04-23T23:23:32.420Z,3.20
2023-04-23T23:26:01.067Z,3.40
2023-04-23T23:28:29.791Z,3.20
2023-04-23T23:30:58.417Z,3.30
2023-04-23T23:33:29.008Z,3.23
2023-04-23T23:35:58.598Z,2.97
2023-04-23T23:38:27.363Z,3.13
2023-04-23T23:40:56.089Z,3.27
2023-04-23T23:43:24.774Z,3.30
2023-04-23T23:45:53.460Z,3.03
2023-04-23T23:48:22.138Z,3.40
2023-04-23T23:50:52.339Z,3.13
2023-04-23T23:53:20.996Z,3.43
2023-04-23T23:55:50.021Z,3.50
2023-04-23T23:58:18.689Z,3.17
